YPGV

Gove Airport

Airport
ICAO code
YPGV
IATA Code
GOV
Summary
ICAO Region
APAC
ICAO Territory
Location

Nhulunbuy, Northern Territory

Serving
Nhulunbuy
Elevation
205 ft
Coordinates
12° 16' 29" S , 136° 49' 34" E
Metar
YPGV 191314Z AUTO 20004KT 9999 // SCT005 BKN014 BKN021 26/25 Q1009

Gove Airport is on the Gove Peninsula in the Northern Territory of Australia. It services the mining town of Nhulunbuy and several Aboriginal communities including Yirrkala.

Airport map

Aerial View

SKYbrary Partners:

Safety knowledge contributed by: